Time;durP1;ratioP1;P1;durP2;ratioP2;P2;SDS_P1;SDS_P2;PMS_P1;PMS_P2;Temp;Humidity;BMP_temperature;BMP_pressure;BME280_temperature;BME280_humidity;BME280_pressure;Samples;Min_cycle;Max_cycle;Signal;HPM_P1;HPM_P2
2022/11/18 05:00:59;;;;;;;2.90;2.75;;;2.40;99.90;;;;;;5725483;23;20259;-69
2022/11/18 05:03:26;;;;;;;9.38;4.03;;;2.40;99.90;;;;;;4978895;28;20222;-69
2022/11/18 05:05:52;;;;;;;3.92;3.60;;;2.40;99.90;;;;;;4985132;28;20223;-69
2022/11/18 05:08:19;;;;;;;5.60;5.05;;;2.40;99.90;;;;;;4981855;28;20204;-68
2022/11/18 05:10:46;;;;;;;5.97;5.68;;;2.40;99.90;;;;;;4981287;28;20323;-69
2022/11/18 05:13:12;;;;;;;6.95;4.20;;;2.40;99.90;;;;;;4988263;28;20238;-69
2022/11/18 05:15:38;;;;;;;5.50;4.60;;;2.40;99.90;;;;;;4989293;28;20228;-69
2022/11/18 05:18:06;;;;;;;12.77;5.55;;;2.40;99.90;;;;;;4987636;28;20808;-69
2022/11/18 05:20:33;;;;;;;5.78;2.88;;;2.30;99.90;;;;;;4990191;28;20247;-69
2022/11/18 05:23:00;;;;;;;7.43;6.82;;;2.40;99.90;;;;;;4979560;28;20200;-69
2022/11/18 05:25:26;;;;;;;5.10;4.75;;;2.30;99.90;;;;;;4991337;28;20204;-69
2022/11/18 05:27:53;;;;;;;2.67;2.47;;;2.30;99.90;;;;;;4988986;28;20296;-69
2022/11/18 05:30:19;;;;;;;9.75;6.68;;;2.30;99.90;;;;;;4991488;28;20203;-70
2022/11/18 05:32:46;;;;;;;5.82;3.72;;;2.30;99.90;;;;;;4989152;28;20216;-70
2022/11/18 05:35:14;;;;;;;4.07;3.80;;;2.30;99.90;;;;;;4990571;28;20346;-70
2022/11/18 05:37:41;;;;;;;2.88;1.67;;;2.30;99.90;;;;;;4989645;28;20200;-70
2022/11/18 05:40:09;;;;;;;3.28;3.00;;;2.30;99.90;;;;;;4987911;28;20223;-70
2022/11/18 05:45:20;;;;;;;6.45;3.85;;;2.30;99.90;;;;;;4990781;28;20218;-70
2022/11/18 05:50:37;;;;;;;4.45;2.90;;;2.20;99.90;;;;;;4984165;28;20617;-70
2022/11/18 05:53:04;;;;;;;6.50;5.18;;;2.20;99.90;;;;;;4975370;28;20227;-70
2022/11/18 05:55:37;;;;;;;10.40;6.28;;;2.20;99.90;;;;;;4987872;28;20232;-70
2022/11/18 05:58:03;;;;;;;6.70;4.50;;;2.20;99.90;;;;;;4984747;28;20212;-70
2022/11/18 06:00:31;;;;;;;4.13;2.60;;;2.20;99.90;;;;;;4990171;28;20208;-70
2022/11/18 06:02:59;;;;;;;7.00;2.95;;;2.20;99.90;;;;;;4985859;28;20227;-70
2022/11/18 06:05:26;;;;;;;7.05;4.28;;;2.20;99.90;;;;;;4990307;28;20656;-70
2022/11/18 06:07:57;;;;;;;3.08;2.75;;;2.10;99.90;;;;;;4989211;28;20204;-70
2022/11/18 06:10:27;;;;;;;2.67;2.50;;;2.20;99.90;;;;;;4988298;28;20210;-70
2022/11/18 06:13:00;;;;;;;5.70;5.07;;;2.20;99.90;;;;;;4987270;28;20215;-69
2022/11/18 06:15:30;;;;;;;5.00;4.70;;;2.20;99.90;;;;;;4988863;28;20220;-71
2022/11/18 06:18:00;;;;;;;5.25;4.07;;;2.20;99.90;;;;;;4983745;28;20209;-69
2022/11/18 06:20:27;;;;;;;4.13;2.65;;;2.10;99.90;;;;;;4989663;28;20207;-69
2022/11/18 06:22:58;;;;;;;9.13;5.85;;;2.20;99.90;;;;;;4988498;28;22157;-69
2022/11/18 06:25:25;;;;;;;5.78;5.22;;;2.20;99.90;;;;;;4982408;28;20208;-70
2022/11/18 06:27:54;;;;;;;4.10;3.83;;;2.10;99.90;;;;;;4988160;28;20215;-69
2022/11/18 06:30:20;;;;;;;7.75;4.00;;;2.10;99.90;;;;;;4987020;28;20204;-69
2022/11/18 06:32:47;;;;;;;4.90;4.47;;;2.10;99.90;;;;;;4985915;28;20822;-69
2022/11/18 06:35:14;;;;;;;4.78;4.30;;;2.10;99.90;;;;;;4990190;28;20230;-69
2022/11/18 06:37:41;;;;;;;6.20;5.35;;;2.10;99.90;;;;;;4987948;28;20552;-70
2022/11/18 06:40:11;;;;;;;6.63;5.97;;;2.00;99.90;;;;;;4990413;28;20207;-70
2022/11/18 06:45:21;;;;;;;3.45;3.15;;;1.90;99.90;;;;;;4987594;28;20342;-70
2022/11/18 06:47:47;;;;;;;5.25;3.45;;;1.90;99.90;;;;;;4985459;28;20211;-70
2022/11/18 06:50:14;;;;;;;2.40;2.07;;;1.90;99.90;;;;;;4983165;28;20307;-69
2022/11/18 06:52:40;;;;;;;3.08;2.15;;;1.90;99.90;;;;;;4983853;28;20626;-69
2022/11/18 06:55:09;;;;;;;9.55;4.68;;;1.90;99.90;;;;;;4978788;28;20208;-70
2022/11/18 06:57:36;;;;;;;3.25;2.85;;;1.90;99.90;;;;;;4986576;28;20231;-70
2022/11/18 07:00:03;;;;;;;3.58;3.38;;;1.80;99.90;;;;;;4985666;28;20219;-69
2022/11/18 07:02:30;;;;;;;6.78;4.40;;;1.80;99.90;;;;;;4989359;28;20231;-69
2022/11/18 07:04:57;;;;;;;7.68;6.10;;;1.80;99.90;;;;;;4992883;28;20200;-69
2022/11/18 07:07:23;;;;;;;6.32;4.53;;;1.70;99.90;;;;;;4993076;28;20568;-69
2022/11/18 07:09:50;;;;;;;7.28;5.32;;;1.70;99.90;;;;;;4992466;28;20210;-69
2022/11/18 07:12:18;;;;;;;11.40;8.15;;;1.60;99.90;;;;;;4993595;28;20592;-70
2022/11/18 07:14:45;;;;;;;8.65;5.07;;;1.60;99.90;;;;;;4983730;28;20212;-69
2022/11/18 07:17:12;;;;;;;7.22;4.70;;;1.60;99.90;;;;;;4992571;28;20238;-70
2022/11/18 07:19:39;;;;;;;4.28;4.07;;;1.60;99.90;;;;;;4983669;28;20209;-70
2022/11/18 07:22:06;;;;;;;3.45;2.55;;;1.60;99.90;;;;;;4993336;28;20226;-70
2022/11/18 07:24:33;;;;;;;2.67;2.47;;;1.60;99.90;;;;;;4989517;28;20223;-70
2022/11/18 07:27:00;;;;;;;5.75;5.25;;;1.60;99.90;;;;;;4990251;28;20207;-70
2022/11/18 07:29:28;;;;;;;16.30;8.68;;;1.60;99.90;;;;;;4993352;28;20203;-70
2022/11/18 07:31:55;;;;;;;8.35;7.22;;;1.60;99.90;;;;;;4988805;28;20224;-70
2022/11/18 07:34:21;;;;;;;6.97;4.68;;;1.60;99.90;;;;;;4992944;28;20203;-70
2022/11/18 07:36:48;;;;;;;11.13;6.32;;;1.60;99.90;;;;;;4991728;28;20235;-70
2022/11/18 07:39:15;;;;;;;3.08;2.78;;;1.60;99.90;;;;;;4983088;28;20212;-70
2022/11/18 07:41:41;;;;;;;10.18;6.03;;;1.60;99.90;;;;;;4990209;28;20224;-70
2022/11/18 07:44:12;;;;;;;12.45;8.88;;;1.60;99.90;;;;;;4986877;28;20212;-70
2022/11/18 07:46:40;;;;;;;7.65;5.55;;;1.60;99.90;;;;;;4988008;28;20208;-70
2022/11/18 07:49:08;;;;;;;9.88;9.05;;;1.60;99.90;;;;;;4984421;28;20211;-70
2022/11/18 07:51:38;;;;;;;5.53;5.13;;;1.60;99.90;;;;;;4990576;28;20250;-70
2022/11/18 07:54:08;;;;;;;3.78;3.47;;;1.60;99.90;;;;;;4990460;28;20207;-70
2022/11/18 07:56:35;;;;;;;10.95;8.68;;;1.70;99.90;;;;;;4984856;28;20246;-70
2022/11/18 07:59:01;;;;;;;9.93;6.97;;;1.70;99.90;;;;;;4986259;28;20295;-70
2022/11/18 08:01:29;;;;;;;5.97;3.40;;;1.70;99.90;;;;;;4989579;28;20239;-70
2022/11/18 08:03:58;;;;;;;5.72;4.43;;;1.70;99.90;;;;;;4989342;28;20210;-69
2022/11/18 08:06:25;;;;;;;7.07;4.93;;;1.70;99.90;;;;;;4992589;28;20210;-69
2022/11/18 08:08:52;;;;;;;5.82;5.20;;;1.70;99.90;;;;;;4990258;28;20203;-69
2022/11/18 08:11:20;;;;;;;5.97;5.47;;;1.70;99.90;;;;;;4991422;28;20227;-69
2022/11/18 08:13:46;;;;;;;6.72;5.88;;;1.70;99.90;;;;;;4990348;28;20203;-69
2022/11/18 08:16:15;;;;;;;3.85;2.60;;;1.70;99.90;;;;;;4983913;28;20246;-69
2022/11/18 08:18:42;;;;;;;6.88;4.95;;;1.70;99.90;;;;;;4987500;28;20211;-69
2022/11/18 08:21:11;;;;;;;9.90;7.25;;;1.70;99.90;;;;;;4989890;28;20237;-69
2022/11/18 08:23:37;;;;;;;11.18;7.00;;;1.70;99.90;;;;;;4990183;28;20204;-69
2022/11/18 08:26:09;;;;;;;10.27;5.15;;;1.70;99.90;;;;;;4991078;28;20204;-69
2022/11/18 08:28:36;;;;;;;5.93;5.30;;;1.70;99.90;;;;;;4982732;28;20207;-69
2022/11/18 08:31:10;;;;;;;5.28;4.88;;;1.60;99.90;;;;;;4981666;28;20228;-69
2022/11/18 08:33:37;;;;;;;5.18;4.82;;;1.60;99.90;;;;;;4983931;28;20286;-69
2022/11/18 08:36:07;;;;;;;3.45;3.25;;;1.60;99.90;;;;;;4979734;28;20325;-69
2022/11/18 08:38:35;;;;;;;5.45;4.30;;;1.60;99.90;;;;;;4987901;28;20215;-70
2022/11/18 08:41:04;;;;;;;4.30;4.07;;;1.60;99.90;;;;;;4990097;28;20573;-69
2022/11/18 08:43:30;;;;;;;6.38;5.93;;;1.60;99.90;;;;;;4989391;28;20222;-70
2022/11/18 08:45:57;;;;;;;6.22;5.90;;;1.60;99.90;;;;;;4991313;28;20214;-70
2022/11/18 08:48:24;;;;;;;9.85;6.90;;;1.70;99.90;;;;;;4991216;28;20218;-70
2022/11/18 08:50:51;;;;;;;4.20;1.83;;;1.70;99.90;;;;;;4990544;28;20286;-69
2022/11/18 08:53:18;;;;;;;6.43;5.20;;;1.70;99.90;;;;;;4990268;28;20207;-70
2022/11/18 08:55:47;;;;;;;5.40;4.47;;;1.70;99.90;;;;;;4989898;28;20207;-70
2022/11/18 08:58:14;;;;;;;6.47;4.88;;;1.70;99.90;;;;;;4982134;28;20201;-69
2022/11/18 09:00:40;;;;;;;5.88;4.75;;;1.60;99.90;;;;;;4986419;28;20223;-70
2022/11/18 09:03:07;;;;;;;3.60;3.40;;;1.60;99.90;;;;;;4987238;28;20217;-70
2022/11/18 09:05:34;;;;;;;8.65;8.07;;;1.60;99.90;;;;;;4989261;28;20218;-70
2022/11/18 09:08:00;;;;;;;4.72;4.05;;;1.50;99.90;;;;;;4988253;28;20298;-70
2022/11/18 09:10:27;;;;;;;4.07;3.22;;;1.50;99.90;;;;;;4990303;28;20206;-70
2022/11/18 09:12:55;;;;;;;6.57;6.00;;;1.50;99.90;;;;;;4988972;28;20264;-69
2022/11/18 09:15:22;;;;;;;4.80;4.45;;;1.50;99.90;;;;;;4986699;28;20208;-69
2022/11/18 09:17:49;;;;;;;8.00;6.03;;;1.50;99.90;;;;;;4988924;28;20317;-69
2022/11/18 09:20:17;;;;;;;5.97;5.35;;;1.50;99.90;;;;;;4984667;28;20218;-69
2022/11/18 09:22:44;;;;;;;2.35;2.25;;;1.50;99.90;;;;;;4989672;28;20633;-69
2022/11/18 09:25:10;;;;;;;17.45;6.05;;;1.60;99.90;;;;;;4985439;28;20204;-70
2022/11/18 09:27:37;;;;;;;2.75;2.63;;;1.60;99.90;;;;;;4985209;28;20283;-72
2022/11/18 09:30:06;;;;;;;3.83;3.50;;;1.60;99.90;;;;;;4989281;28;20211;-70
2022/11/18 09:32:33;;;;;;;2.70;2.60;;;1.60;99.90;;;;;;4988831;28;20247;-69
2022/11/18 09:35:00;;;;;;;5.07;3.97;;;1.60;99.90;;;;;;4988065;28;20537;-70
2022/11/18 09:37:27;;;;;;;4.38;4.03;;;1.60;99.90;;;;;;4989463;28;20215;-70
2022/11/18 09:39:53;;;;;;;4.50;4.30;;;1.70;99.90;;;;;;4987484;28;20235;-70
2022/11/18 09:42:32;;;;;;;6.18;4.70;;;1.70;99.90;;;;;;4987693;28;20227;-70
2022/11/18 09:45:17;;;;;;;4.07;3.80;;;1.70;99.90;;;;;;4984250;28;20657;-71
2022/11/18 09:47:44;;;;;;;3.42;3.13;;;1.80;99.90;;;;;;4988064;28;20204;-70
2022/11/18 09:50:13;;;;;;;4.05;3.38;;;1.80;99.90;;;;;;4985635;28;20207;-71
2022/11/18 09:52:46;;;;;;;6.50;4.03;;;1.80;99.90;;;;;;4981772;28;20208;-70
2022/11/18 09:55:14;;;;;;;4.18;2.58;;;1.80;99.90;;;;;;4980638;28;20207;-71
2022/11/18 09:57:45;;;;;;;8.13;4.78;;;1.80;99.90;;;;;;4990786;28;20218;-70
2022/11/18 10:00:16;;;;;;;4.93;4.53;;;1.80;99.90;;;;;;4988919;28;20207;-70
2022/11/18 10:02:52;;;;;;;8.88;5.90;;;1.80;99.90;;;;;;4985401;28;20596;-70
2022/11/18 10:05:22;;;;;;;7.07;5.60;;;1.90;99.90;;;;;;4986808;28;20273;-70
2022/11/18 10:07:59;;;;;;;6.53;5.78;;;1.90;99.90;;;;;;4995629;28;20203;-70
2022/11/18 10:10:34;;;;;;;6.85;4.15;;;1.90;99.90;;;;;;5000959;28;20208;-70
2022/11/18 10:13:08;;;;;;;4.05;3.60;;;2.00;99.90;;;;;;4986097;28;20292;-71
2022/11/18 10:15:42;;;;;;;5.85;3.25;;;2.10;99.90;;;;;;4987234;28;20203;-70
2022/11/18 10:18:22;;;;;;;7.88;6.78;;;2.10;99.90;;;;;;4985776;28;20241;-70
2022/11/18 10:20:56;;;;;;;6.63;6.22;;;2.10;99.90;;;;;;4988150;28;20227;-70
2022/11/18 10:23:28;;;;;;;8.48;3.42;;;2.10;99.90;;;;;;4987490;28;20862;-71
2022/11/18 10:25:55;;;;;;;8.63;4.60;;;2.10;99.90;;;;;;4971106;28;20810;-70
2022/11/18 10:28:24;;;;;;;4.25;1.63;;;2.10;99.90;;;;;;4978041;28;20203;-70
2022/11/18 10:30:52;;;;;;;5.30;4.38;;;2.00;99.90;;;;;;4988676;28;20227;-70
2022/11/18 10:33:26;;;;;;;6.70;3.75;;;2.00;99.90;;;;;;4999591;28;20208;-70
2022/11/18 10:36:10;;;;;;;4.00;1.70;;;2.00;99.90;;;;;;5005165;28;20210;-70
2022/11/18 10:38:37;;;;;;;5.25;3.45;;;2.00;99.90;;;;;;4995265;28;20306;-70
2022/11/18 10:41:08;;;;;;;5.88;5.32;;;2.10;99.90;;;;;;4993306;28;20697;-70
2022/11/18 10:43:48;;;;;;;5.55;4.60;;;2.10;99.90;;;;;;4976746;28;20209;-70
2022/11/18 10:46:25;;;;;;;4.65;4.40;;;2.00;99.90;;;;;;4975759;28;20263;-70
2022/11/18 10:49:16;;;;;;;4.03;2.85;;;2.00;99.90;;;;;;4975585;28;20209;-69
2022/11/18 10:51:44;;;;;;;5.38;5.03;;;2.10;99.90;;;;;;4974999;28;20268;-70
2022/11/18 10:54:15;;;;;;;6.50;5.50;;;2.10;99.90;;;;;;4976098;28;20216;-70
2022/11/18 10:56:47;;;;;;;3.67;3.58;;;2.10;99.90;;;;;;4974584;28;20219;-70
2022/11/18 10:59:26;;;;;;;3.75;2.90;;;2.10;99.90;;;;;;4975113;28;20756;-71
2022/11/18 11:02:17;;;;;;;2.60;1.75;;;2.20;99.90;;;;;;4987358;28;20737;-71
2022/11/18 11:04:44;;;;;;;2.88;2.67;;;2.20;99.90;;;;;;4974663;28;20188;-70
2022/11/18 11:07:25;;;;;;;6.30;5.05;;;2.20;99.90;;;;;;4974269;28;20238;-70
2022/11/18 11:10:17;;;;;;;3.45;3.33;;;2.20;99.90;;;;;;4974945;28;20216;-70
2022/11/18 11:12:49;;;;;;;3.67;3.47;;;2.30;99.90;;;;;;4973944;28;20209;-71
2022/11/18 11:15:21;;;;;;;2.13;1.58;;;2.20;99.90;;;;;;4974687;28;20219;-70
2022/11/18 11:18:40;;;;;;;1.75;1.75;;;2.20;99.90;;;;;;4974011;28;20231;-70
2022/11/18 11:20:40;;;;;;;8.35;3.10;;;2.20;99.90;;;;;;4977613;28;20224;-70
2022/11/18 11:23:09;;;;;;;3.78;3.35;;;2.20;99.90;;;;;;4993554;28;20586;-69
2022/11/18 11:25:42;;;;;;;6.70;5.30;;;2.20;99.90;;;;;;4994079;28;20237;-70
2022/11/18 11:28:15;;;;;;;7.13;3.47;;;2.20;99.90;;;;;;4993526;28;20570;-70
2022/11/18 11:30:46;;;;;;;3.03;2.88;;;2.30;99.90;;;;;;4978924;23;20729;-71
2022/11/18 11:33:22;;;;;;;3.05;2.00;;;2.30;99.90;;;;;;4950610;28;20217;-72
2022/11/18 11:35:56;;;;;;;5.38;4.88;;;2.40;99.90;;;;;;4948251;29;20209;-70
2022/11/18 11:38:35;;;;;;;4.35;2.65;;;2.40;99.90;;;;;;4955007;29;20239;-69
2022/11/18 11:41:10;;;;;;;6.55;3.92;;;2.30;99.90;;;;;;4949527;29;20244;-70
2022/11/18 11:43:47;;;;;;;2.97;2.88;;;2.30;99.90;;;;;;4954505;29;20205;-70
2022/11/18 11:46:26;;;;;;;4.45;3.33;;;2.30;99.90;;;;;;4953414;29;20221;-70
2022/11/18 11:49:10;;;;;;;3.70;3.45;;;2.30;99.90;;;;;;4954181;28;20201;-69
2022/11/18 11:51:44;;;;;;;3.28;2.95;;;2.30;99.90;;;;;;4954648;29;20339;-71
2022/11/18 11:54:30;;;;;;;3.47;3.10;;;2.30;99.90;;;;;;4953104;29;20213;-70
2022/11/18 11:57:02;;;;;;;2.25;2.22;;;2.20;99.90;;;;;;4948425;29;20205;-70
2022/11/18 11:59:37;;;;;;;4.07;3.78;;;2.30;99.90;;;;;;4953651;28;20257;-71
2022/11/18 12:02:35;;;;;;;6.68;5.38;;;2.30;99.90;;;;;;4954448;29;20209;-71
2022/11/18 12:05:15;;;;;;;4.05;3.83;;;2.30;99.90;;;;;;4955036;29;20220;-71
2022/11/18 12:07:47;;;;;;;5.63;3.83;;;2.40;99.90;;;;;;4954753;28;20213;-69
2022/11/18 12:10:29;;;;;;;1.38;1.38;;;2.40;99.90;;;;;;4954896;28;20245;-71
2022/11/18 12:13:10;;;;;;;3.53;3.28;;;2.40;99.90;;;;;;4947146;29;20220;-71
2022/11/18 12:15:51;;;;;;;3.92;3.63;;;2.40;99.90;;;;;;4953974;29;20622;-70
2022/11/18 12:18:22;;;;;;;3.70;2.88;;;2.40;99.90;;;;;;4954055;29;20241;-70
2022/11/18 12:20:51;;;;;;;2.95;2.70;;;2.40;99.90;;;;;;4954495;28;20228;-70
2022/11/18 12:23:20;;;;;;;3.45;3.13;;;2.40;99.90;;;;;;4953579;29;20591;-69
2022/11/18 12:25:59;;;;;;;2.38;2.28;;;2.40;99.90;;;;;;4954199;29;20316;-70
2022/11/18 12:28:29;;;;;;;1.85;1.75;;;2.50;99.90;;;;;;4952984;29;20212;-70
2022/11/18 12:31:34;;;;;;;4.78;4.25;;;2.50;99.90;;;;;;4954773;29;20933;-70
2022/11/18 12:34:05;;;;;;;1.65;1.65;;;2.40;99.90;;;;;;4955201;29;20217;-72
2022/11/18 12:36:35;;;;;;;0.93;0.85;;;2.50;99.90;;;;;;4955721;29;20216;-72
2022/11/18 12:39:47;;;;;;;2.15;1.98;;;2.40;99.90;;;;;;4955550;28;20245;-72
2022/11/18 12:45:57;;;;;;;2.88;2.67;;;2.30;99.90;;;;;;4955746;29;20204;-72
2022/11/18 12:48:39;;;;;;;3.75;3.20;;;2.30;99.90;;;;;;4955352;29;20212;-72
2022/11/18 12:51:41;;;;;;;2.75;2.55;;;2.30;99.90;;;;;;4952878;29;20229;-72
2022/11/18 12:54:31;;;;;;;0.90;0.85;;;2.40;99.90;;;;;;4875897;29;20207;-72
2022/11/18 12:57:00;;;;;;;0.95;0.95;;;2.40;99.90;;;;;;4940623;29;20585;-71
2022/11/18 12:59:30;;;;;;;4.32;2.88;;;2.40;99.90;;;;;;4953936;28;20225;-70
2022/11/18 13:02:05;;;;;;;4.20;2.38;;;2.50;99.90;;;;;;4950345;29;20577;-72
2022/11/18 13:04:32;;;;;;;2.67;2.60;;;2.50;99.90;;;;;;4954588;29;20209;-71
2022/11/18 13:07:02;;;;;;;0.75;0.75;;;2.50;99.90;;;;;;4954492;29;20228;-71
2022/11/18 13:09:33;;;;;;;4.82;4.40;;;2.50;99.90;;;;;;4954191;28;20225;-71
2022/11/18 13:12:01;;;;;;;1.15;1.08;;;2.50;99.90;;;;;;4954413;29;20212;-70
2022/11/18 13:20:20;;;;;;;0.55;0.55;;;2.40;99.90;;;;;;4954260;28;20240;-72
2022/11/18 13:25:35;;;;;;;0.55;0.55;;;2.30;99.90;;;;;;4954766;29;20632;-71
2022/11/18 13:28:10;;;;;;;2.08;1.98;;;2.30;99.90;;;;;;4954746;29;20315;-72
2022/11/18 13:30:45;;;;;;;2.15;2.05;;;2.40;99.90;;;;;;4955741;28;20331;-73
2022/11/18 13:33:12;;;;;;;0.68;0.68;;;2.30;99.90;;;;;;4954547;29;20654;-73
2022/11/18 13:35:40;;;;;;;2.17;2.08;;;2.40;99.90;;;;;;4955475;29;20216;-72
2022/11/18 13:38:20;;;;;;;2.60;1.17;;;2.40;99.90;;;;;;4957523;28;20225;-72
2022/11/18 13:41:03;;;;;;;2.88;2.67;;;2.30;99.90;;;;;;4947663;29;20220;-72
2022/11/18 13:43:31;;;;;;;5.05;3.38;;;2.40;99.90;;;;;;4955524;29;20301;-72
2022/11/18 13:45:58;;;;;;;1.60;1.60;;;2.40;99.90;;;;;;4955049;29;20216;-70
2022/11/18 13:48:25;;;;;;;7.03;5.13;;;2.40;99.90;;;;;;4954869;29;20559;-73
2022/11/18 13:50:54;;;;;;;5.30;2.40;;;2.40;99.90;;;;;;4954018;29;20236;-71
2022/11/18 13:53:29;;;;;;;3.70;2.85;;;2.40;99.90;;;;;;4954525;29;20201;-72
2022/11/18 13:56:01;;;;;;;2.58;2.53;;;2.50;99.90;;;;;;4953837;29;20244;-71
2022/11/18 13:58:38;;;;;;;2.47;2.35;;;2.50;99.90;;;;;;4953813;29;20237;-71
2022/11/18 14:01:13;;;;;;;15.23;3.70;;;2.40;99.90;;;;;;4952562;28;20252;-70
2022/11/18 14:03:49;;;;;;;3.80;2.90;;;2.40;99.90;;;;;;4951657;29;20212;-72
2022/11/18 14:06:24;;;;;;;3.00;2.70;;;2.40;99.90;;;;;;4952173;29;20224;-67
2022/11/18 14:09:15;;;;;;;3.72;3.40;;;2.40;99.90;;;;;;4943900;29;20209;-69
2022/11/18 14:11:43;;;;;;;7.50;3.20;;;2.30;99.90;;;;;;4953330;28;20220;-70
2022/11/18 14:14:12;;;;;;;7.10;3.22;;;2.30;99.90;;;;;;4956893;29;20205;-70
2022/11/18 14:16:40;;;;;;;4.28;2.35;;;2.30;99.90;;;;;;4956886;29;20232;-70
2022/11/18 14:19:12;;;;;;;9.18;6.70;;;2.30;99.90;;;;;;4956920;29;20229;-70
2022/11/18 14:21:40;;;;;;;3.13;2.92;;;2.30;99.90;;;;;;4957743;29;20213;-69
2022/11/18 14:24:14;;;;;;;3.90;3.60;;;2.20;99.90;;;;;;4955947;29;20224;-70
2022/11/18 14:26:41;;;;;;;8.98;6.15;;;2.20;99.90;;;;;;4949226;29;20208;-69
2022/11/18 14:29:19;;;;;;;2.10;2.10;;;2.10;99.90;;;;;;4953242;29;20228;-69
2022/11/18 14:32:12;;;;;;;2.28;2.25;;;2.10;99.90;;;;;;4950250;29;20227;-70
2022/11/18 14:34:39;;;;;;;5.18;4.07;;;2.00;99.90;;;;;;4957039;29;20681;-71
2022/11/18 14:37:10;;;;;;;2.65;2.45;;;2.00;99.90;;;;;;4956703;29;20216;-70
2022/11/18 14:39:39;;;;;;;4.07;1.90;;;2.00;99.90;;;;;;4957704;29;20240;-71
2022/11/18 14:42:10;;;;;;;3.20;3.00;;;1.90;99.90;;;;;;4957229;29;20217;-71
2022/11/18 14:44:37;;;;;;;1.25;1.15;;;1.90;99.90;;;;;;4956748;28;20205;-70
2022/11/18 14:47:12;;;;;;;2.28;2.17;;;1.80;99.90;;;;;;4957506;29;20209;-69
2022/11/18 14:49:39;;;;;;;6.30;3.88;;;1.80;99.90;;;;;;4957301;28;20232;-70
2022/11/18 14:52:06;;;;;;;3.50;2.95;;;1.80;99.90;;;;;;4955980;29;20204;-69
2022/11/18 14:54:33;;;;;;;5.72;3.53;;;1.80;99.90;;;;;;4956447;29;20215;-69
2022/11/18 14:57:03;;;;;;;5.00;4.47;;;1.80;99.90;;;;;;4956711;29;20209;-71
2022/11/18 14:59:30;;;;;;;3.70;3.45;;;1.70;99.90;;;;;;4955738;29;20232;-70
2022/11/18 15:01:58;;;;;;;3.45;3.22;;;1.70;99.90;;;;;;4953176;29;20204;-70
2022/11/18 15:04:25;;;;;;;2.00;1.90;;;1.70;99.90;;;;;;4956798;29;20205;-70
2022/11/18 15:06:51;;;;;;;4.35;2.35;;;1.70;99.90;;;;;;4957263;29;20227;-69
2022/11/18 15:09:18;;;;;;;4.45;4.15;;;1.60;99.90;;;;;;4957416;29;20225;-70
2022/11/18 15:11:45;;;;;;;4.03;3.70;;;1.60;99.90;;;;;;4957487;29;20225;-69
2022/11/18 15:14:13;;;;;;;3.00;2.70;;;1.60;99.90;;;;;;4956828;29;20583;-69
2022/11/18 15:16:40;;;;;;;2.72;2.53;;;1.50;99.90;;;;;;4956292;29;20222;-69
2022/11/18 15:19:13;;;;;;;3.83;3.35;;;1.50;99.90;;;;;;4957097;29;20228;-70
2022/11/18 15:21:39;;;;;;;4.40;3.47;;;1.50;99.90;;;;;;4957339;29;20198;-70
2022/11/18 15:24:06;;;;;;;2.33;2.22;;;1.40;99.90;;;;;;4955796;29;20209;-71
2022/11/18 15:26:36;;;;;;;2.13;1.88;;;1.40;99.90;;;;;;4956480;29;20217;-69
2022/11/18 15:29:03;;;;;;;6.40;4.20;;;1.40;99.90;;;;;;4955591;28;20205;-71
2022/11/18 15:31:31;;;;;;;2.88;2.67;;;1.40;99.90;;;;;;4956116;29;20200;-71
2022/11/18 15:33:58;;;;;;;2.78;2.58;;;1.30;99.90;;;;;;4952984;29;20708;-70
2022/11/18 15:36:26;;;;;;;2.97;2.42;;;1.30;99.90;;;;;;4956480;29;20199;-70
2022/11/18 15:38:54;;;;;;;2.67;2.47;;;1.30;99.90;;;;;;4956918;28;20235;-69
2022/11/18 15:41:22;;;;;;;8.65;2.58;;;1.30;99.90;;;;;;4956333;29;20223;-71
2022/11/18 15:43:50;;;;;;;3.25;2.53;;;1.20;99.90;;;;;;4955317;29;20216;-71
2022/11/18 15:46:18;;;;;;;1.25;1.20;;;1.20;99.90;;;;;;4956578;29;20209;-70
2022/11/18 15:48:47;;;;;;;2.88;2.78;;;1.20;99.90;;;;;;4957610;28;20224;-68
2022/11/18 15:51:14;;;;;;;7.13;3.10;;;1.10;99.90;;;;;;4956549;29;20208;-69
2022/11/18 15:53:41;;;;;;;2.40;2.30;;;1.10;99.90;;;;;;4937354;29;20217;-70
2022/11/18 15:56:15;;;;;;;2.70;1.65;;;1.10;99.90;;;;;;4937066;29;20217;-69
2022/11/18 15:58:42;;;;;;;6.75;3.13;;;1.00;99.90;;;;;;4953334;29;20333;-69
2022/11/18 16:01:09;;;;;;;2.90;2.70;;;1.00;99.90;;;;;;4956657;28;20223;-70
2022/11/18 16:03:35;;;;;;;3.88;3.55;;;1.00;99.90;;;;;;4956992;29;20219;-70
2022/11/18 16:06:04;;;;;;;4.07;3.88;;;0.90;99.90;;;;;;4957957;29;20256;-70
2022/11/18 16:08:30;;;;;;;1.75;1.70;;;0.90;99.90;;;;;;4956490;29;20217;-70
2022/11/18 16:13:42;;;;;;;2.38;2.28;;;0.80;99.90;;;;;;4954771;29;20564;-69
2022/11/18 16:16:18;;;;;;;4.35;2.67;;;0.80;99.90;;;;;;4956879;29;20604;-70
2022/11/18 16:18:45;;;;;;;1.70;1.67;;;0.80;99.90;;;;;;4958328;28;20239;-72
2022/11/18 16:21:13;;;;;;;1.25;1.23;;;0.70;99.90;;;;;;4961419;29;20211;-72
2022/11/18 16:23:40;;;;;;;4.90;1.92;;;0.70;99.90;;;;;;4960001;29;20212;-71
2022/11/18 16:26:06;;;;;;;1.60;1.50;;;0.70;99.90;;;;;;4960647;28;20251;-71
2022/11/18 16:28:33;;;;;;;2.17;2.00;;;0.70;99.90;;;;;;4956152;29;20224;-71
2022/11/18 16:33:44;;;;;;;4.93;4.68;;;0.60;99.90;;;;;;4941253;29;20276;-71
2022/11/18 16:36:12;;;;;;;2.45;1.77;;;0.60;99.90;;;;;;4941493;29;20227;-72
2022/11/18 16:38:39;;;;;;;1.73;1.63;;;0.50;99.90;;;;;;4941795;29;20232;-71
2022/11/18 16:41:30;;;;;;;1.08;1.08;;;0.50;99.90;;;;;;4956601;29;20803;-71
2022/11/18 16:43:52;;;;;;;3.33;3.13;;;0.50;99.90;;;;;;4945812;29;20620;-72
2022/11/18 16:46:19;;;;;;;2.80;1.35;;;0.50;99.90;;;;;;4960170;29;20222;-72
2022/11/18 16:48:46;;;;;;;2.83;2.55;;;0.50;99.90;;;;;;4960355;28;20652;-72
2022/11/18 16:51:21;;;;;;;6.30;2.60;;;0.40;99.90;;;;;;4960034;29;20219;-71
2022/11/18 16:53:52;;;;;;;9.23;4.18;;;0.50;99.90;;;;;;4958818;29;20219;-72
2022/11/18 16:56:19;;;;;;;1.85;1.73;;;0.40;99.90;;;;;;4957355;29;20232;-69
2022/11/18 16:58:46;;;;;;;3.25;3.15;;;0.40;99.90;;;;;;4959932;29;20230;-71
2022/11/18 17:01:13;;;;;;;2.58;2.47;;;0.40;99.90;;;;;;4956110;29;20207;-71
2022/11/18 17:03:41;;;;;;;4.70;3.35;;;0.40;99.90;;;;;;4957472;29;20215;-71
2022/11/18 17:06:08;;;;;;;6.40;4.07;;;0.30;99.90;;;;;;4961976;29;20208;-70
2022/11/18 17:08:37;;;;;;;4.22;3.20;;;0.30;99.90;;;;;;4967429;29;20273;-70
2022/11/18 17:11:11;;;;;;;2.88;2.67;;;0.30;99.90;;;;;;4966567;29;20551;-71
2022/11/18 17:13:39;;;;;;;4.05;2.58;;;0.30;99.90;;;;;;4964362;29;20208;-70
2022/11/18 17:16:07;;;;;;;3.05;2.95;;;0.30;99.90;;;;;;4964672;29;20286;-70
2022/11/18 17:18:34;;;;;;;3.35;3.10;;;0.20;99.90;;;;;;4963240;29;20250;-71
2022/11/18 17:21:06;;;;;;;2.40;2.30;;;0.20;99.90;;;;;;4964527;28;20847;-72
2022/11/18 17:23:33;;;;;;;8.40;3.70;;;0.20;99.90;;;;;;4962800;29;20226;-71
2022/11/18 17:26:02;;;;;;;7.25;4.32;;;0.20;99.90;;;;;;4963245;29;20625;-71
2022/11/18 17:28:30;;;;;;;2.08;2.08;;;0.20;99.90;;;;;;4962817;29;20205;-71
2022/11/18 17:30:56;;;;;;;3.22;2.83;;;0.10;99.90;;;;;;4989112;23;20234;-71
2022/11/18 17:33:23;;;;;;;4.70;2.90;;;0.20;99.90;;;;;;4971222;28;20299;-71
2022/11/18 17:35:59;;;;;;;2.35;1.95;;;0.20;99.90;;;;;;4973436;28;20203;-70
2022/11/18 17:38:26;;;;;;;3.08;1.67;;;0.10;99.90;;;;;;4973830;28;20248;-70
2022/11/18 17:40:54;;;;;;;4.43;3.92;;;0.10;99.90;;;;;;4973053;28;20230;-69
2022/11/18 17:43:23;;;;;;;2.85;2.78;;;0.10;99.90;;;;;;4973558;28;20341;-70
2022/11/18 17:45:51;;;;;;;9.48;3.88;;;0.10;99.90;;;;;;4973737;28;20215;-70
2022/11/18 17:48:18;;;;;;;3.33;3.17;;;0.10;99.90;;;;;;4973061;28;20206;-71
2022/11/18 17:50:45;;;;;;;13.38;4.68;;;0.10;99.90;;;;;;4971997;28;20232;-71
2022/11/18 17:53:12;;;;;;;3.90;3.80;;;0.10;99.90;;;;;;4973179;28;20211;-70
2022/11/18 17:55:39;;;;;;;4.40;4.25;;;0.00;99.90;;;;;;4973387;28;20215;-70
2022/11/18 17:58:08;;;;;;;7.97;3.88;;;0.10;99.90;;;;;;4972717;28;20591;-70
2022/11/18 18:00:37;;;;;;;4.20;3.90;;;0.10;99.90;;;;;;4972851;28;20242;-71
2022/11/18 18:03:05;;;;;;;11.73;6.90;;;0.10;99.90;;;;;;4970469;28;20217;-72
2022/11/18 18:05:32;;;;;;;3.85;3.75;;;0.00;99.90;;;;;;4973063;28;20225;-73
2022/11/18 18:07:59;;;;;;;5.75;5.15;;;0.00;99.90;;;;;;4972689;28;20219;-71
2022/11/18 18:10:26;;;;;;;5.90;3.72;;;0.00;99.90;;;;;;4972839;28;20331;-71
2022/11/18 18:15:38;;;;;;;3.35;3.22;;;0.00;99.90;;;;;;4970728;28;20674;-71
2022/11/18 18:18:06;;;;;;;5.97;4.13;;;0.00;99.90;;;;;;4972244;28;20211;-71
2022/11/18 18:20:33;;;;;;;12.85;8.43;;;0.00;99.90;;;;;;4974241;28;20230;-73
2022/11/18 18:23:00;;;;;;;6.25;2.97;;;-0.10;99.90;;;;;;4971527;28;20225;-72
2022/11/18 18:25:27;;;;;;;3.92;3.63;;;0.00;99.90;;;;;;4972418;28;20216;-71
2022/11/18 18:27:53;;;;;;;1.75;1.65;;;-0.10;99.90;;;;;;4970182;28;20707;-70
2022/11/18 18:30:20;;;;;;;2.60;2.55;;;-0.10;99.90;;;;;;4962328;28;20322;-68
2022/11/18 18:32:48;;;;;;;4.47;4.10;;;-0.10;99.90;;;;;;4970496;28;20701;-73
2022/11/18 18:35:15;;;;;;;4.88;2.30;;;-0.10;99.90;;;;;;4972136;28;20207;-71
2022/11/18 18:37:42;;;;;;;3.28;3.17;;;-0.10;99.90;;;;;;4972268;28;20214;-69
2022/11/18 18:40:09;;;;;;;5.65;4.57;;;-0.10;99.90;;;;;;4972303;28;20234;-71